sensor_id;sensor_type;location;lat;lon;timestamp;P1;durP1;ratioP1;P2;durP2;ratioP2
53939;SDS011;39850;43.324;21.916;2023-08-17T00:01:09;31.0;;;33.0;;
53939;SDS011;39850;43.324;21.916;2023-08-17T00:38:01;33.0;;;34.0;;
53939;SDS011;39850;43.324;21.916;2023-08-17T00:42:37;33.0;;;34.0;;
53939;SDS011;39850;43.324;21.916;2023-08-17T00:47:15;34.0;;;36.0;;
53939;SDS011;39850;43.324;21.916;2023-08-17T00:51:52;34.0;;;36.0;;
53939;SDS011;39850;43.324;21.916;2023-08-17T00:56:30;35.0;;;37.0;;
53939;SDS011;39850;43.324;21.916;2023-08-17T01:01:08;35.0;;;37.0;;
53939;SDS011;39850;43.324;21.916;2023-08-17T01:05:45;36.0;;;38.0;;
53939;SDS011;39850;43.324;21.916;2023-08-17T01:10:23;36.0;;;38.0;;
53939;SDS011;39850;43.324;21.916;2023-08-17T01:15:39;37.0;;;38.0;;
53939;SDS011;39850;43.324;21.916;2023-08-17T01:20:27;37.0;;;38.0;;
53939;SDS011;39850;43.324;21.916;2023-08-17T01:58:02;38.0;;;38.0;;
53939;SDS011;39850;43.324;21.916;2023-08-17T02:02:39;38.0;;;38.0;;
53939;SDS011;39850;43.324;21.916;2023-08-17T02:07:16;38.0;;;38.0;;
53939;SDS011;39850;43.324;21.916;2023-08-17T02:11:52;38.0;;;38.0;;
53939;SDS011;39850;43.324;21.916;2023-08-17T02:16:28;38.0;;;38.0;;
53939;SDS011;39850;43.324;21.916;2023-08-17T02:21:05;38.0;;;38.0;;
53939;SDS011;39850;43.324;21.916;2023-08-17T02:25:41;37.0;;;38.0;;
53939;SDS011;39850;43.324;21.916;2023-08-17T02:30:18;37.0;;;38.0;;
53939;SDS011;39850;43.324;21.916;2023-08-17T03:16:23;38.0;;;36.0;;
53939;SDS011;39850;43.324;21.916;2023-08-17T03:21:00;38.0;;;36.0;;
53939;SDS011;39850;43.324;21.916;2023-08-17T03:25:36;37.0;;;35.0;;
53939;SDS011;39850;43.324;21.916;2023-08-17T03:30:13;37.0;;;35.0;;
53939;SDS011;39850;43.324;21.916;2023-08-17T03:34:49;36.0;;;34.0;;
53939;SDS011;39850;43.324;21.916;2023-08-17T03:39:26;36.0;;;34.0;;
53939;SDS011;39850;43.324;21.916;2023-08-17T03:44:05;36.0;;;34.0;;
53939;SDS011;39850;43.324;21.916;2023-08-17T03:48:41;35.0;;;34.0;;
53939;SDS011;39850;43.324;21.916;2023-08-17T03:53:18;35.0;;;34.0;;
53939;SDS011;39850;43.324;21.916;2023-08-17T03:57:55;34.0;;;33.0;;
53939;SDS011;39850;43.324;21.916;2023-08-17T04:02:32;34.0;;;33.0;;
53939;SDS011;39850;43.324;21.916;2023-08-17T04:39:25;30.0;;;28.0;;
53939;SDS011;39850;43.324;21.916;2023-08-17T04:44:02;30.0;;;28.0;;
53939;SDS011;39850;43.324;21.916;2023-08-17T04:48:39;30.0;;;28.0;;
53939;SDS011;39850;43.324;21.916;2023-08-17T04:53:15;30.0;;;28.0;;
53939;SDS011;39850;43.324;21.916;2023-08-17T04:57:52;30.0;;;28.0;;
53939;SDS011;39850;43.324;21.916;2023-08-17T05:02:28;30.0;;;28.0;;
53939;SDS011;39850;43.324;21.916;2023-08-17T05:07:05;30.0;;;28.0;;
53939;SDS011;39850;43.324;21.916;2023-08-17T05:11:42;30.0;;;28.0;;
53939;SDS011;39850;43.324;21.916;2023-08-17T05:16:19;29.0;;;28.0;;
53939;SDS011;39850;43.324;21.916;2023-08-17T05:20:55;29.0;;;28.0;;
53939;SDS011;39850;43.324;21.916;2023-08-17T05:57:50;25.0;;;23.0;;
53939;SDS011;39850;43.324;21.916;2023-08-17T06:02:26;25.0;;;23.0;;
53939;SDS011;39850;43.324;21.916;2023-08-17T06:07:03;24.0;;;22.0;;
53939;SDS011;39850;43.324;21.916;2023-08-17T06:11:40;24.0;;;22.0;;
53939;SDS011;39850;43.324;21.916;2023-08-17T06:16:17;22.0;;;22.0;;
53939;SDS011;39850;43.324;21.916;2023-08-17T06:20:53;22.0;;;22.0;;
53939;SDS011;39850;43.324;21.916;2023-08-17T06:25:30;22.0;;;22.0;;
53939;SDS011;39850;43.324;21.916;2023-08-17T06:30:11;22.0;;;22.0;;
53939;SDS011;39850;43.324;21.916;2023-08-17T06:34:49;22.0;;;22.0;;
53939;SDS011;39850;43.324;21.916;2023-08-17T06:39:26;21.0;;;21.0;;
53939;SDS011;39850;43.324;21.916;2023-08-17T06:44:05;21.0;;;21.0;;
53939;SDS011;39850;43.324;21.916;2023-08-17T07:16:24;21.0;;;21.0;;
53939;SDS011;39850;43.324;21.916;2023-08-17T07:21:00;21.0;;;21.0;;
53939;SDS011;39850;43.324;21.916;2023-08-17T07:25:37;21.0;;;21.0;;
53939;SDS011;39850;43.324;21.916;2023-08-17T07:30:14;21.0;;;21.0;;
53939;SDS011;39850;43.324;21.916;2023-08-17T07:34:50;21.0;;;21.0;;
53939;SDS011;39850;43.324;21.916;2023-08-17T07:39:26;21.0;;;21.0;;
53939;SDS011;39850;43.324;21.916;2023-08-17T07:44:05;21.0;;;21.0;;
53939;SDS011;39850;43.324;21.916;2023-08-17T07:48:42;21.0;;;22.0;;
53939;SDS011;39850;43.324;21.916;2023-08-17T07:53:19;21.0;;;22.0;;
53939;SDS011;39850;43.324;21.916;2023-08-17T07:57:56;21.0;;;22.0;;
53939;SDS011;39850;43.324;21.916;2023-08-17T08:02:33;21.0;;;22.0;;
53939;SDS011;39850;43.324;21.916;2023-08-17T08:39:27;16.0;;;16.0;;
53939;SDS011;39850;43.324;21.916;2023-08-17T08:44:05;16.0;;;16.0;;
53939;SDS011;39850;43.324;21.916;2023-08-17T08:48:51;16.0;;;16.0;;
53939;SDS011;39850;43.324;21.916;2023-08-17T08:53:45;16.0;;;16.0;;
53939;SDS011;39850;43.324;21.916;2023-08-17T08:58:29;16.0;;;16.0;;
53939;SDS011;39850;43.324;21.916;2023-08-17T09:03:10;16.0;;;16.0;;
53939;SDS011;39850;43.324;21.916;2023-08-17T09:07:52;16.0;;;16.0;;
53939;SDS011;39850;43.324;21.916;2023-08-17T09:12:31;16.0;;;16.0;;
53939;SDS011;39850;43.324;21.916;2023-08-17T09:17:09;17.0;;;17.0;;
53939;SDS011;39850;43.324;21.916;2023-08-17T09:21:46;17.0;;;17.0;;
53939;SDS011;39850;43.324;21.916;2023-08-17T09:59:01;14.0;;;14.0;;
53939;SDS011;39850;43.324;21.916;2023-08-17T10:03:46;14.0;;;14.0;;
53939;SDS011;39850;43.324;21.916;2023-08-17T10:08:30;18.0;;;18.0;;
53939;SDS011;39850;43.324;21.916;2023-08-17T10:13:28;18.0;;;18.0;;
53939;SDS011;39850;43.324;21.916;2023-08-17T10:18:38;14.0;;;14.0;;
53939;SDS011;39850;43.324;21.916;2023-08-17T10:23:33;14.0;;;14.0;;
53939;SDS011;39850;43.324;21.916;2023-08-17T10:28:13;18.0;;;18.0;;
53939;SDS011;39850;43.324;21.916;2023-08-17T10:32:53;18.0;;;18.0;;
53939;SDS011;39850;43.324;21.916;2023-08-17T10:37:34;14.0;;;13.0;;
53939;SDS011;39850;43.324;21.916;2023-08-17T10:42:13;14.0;;;13.0;;
53939;SDS011;39850;43.324;21.916;2023-08-17T11:19:47;16.0;;;13.0;;
53939;SDS011;39850;43.324;21.916;2023-08-17T11:24:23;16.0;;;13.0;;
53939;SDS011;39850;43.324;21.916;2023-08-17T11:29:01;15.0;;;14.0;;
53939;SDS011;39850;43.324;21.916;2023-08-17T11:33:40;15.0;;;14.0;;
53939;SDS011;39850;43.324;21.916;2023-08-17T11:38:17;14.0;;;13.0;;
53939;SDS011;39850;43.324;21.916;2023-08-17T11:42:54;14.0;;;13.0;;
53939;SDS011;39850;43.324;21.916;2023-08-17T11:47:33;14.0;;;14.0;;
53939;SDS011;39850;43.324;21.916;2023-08-17T11:52:10;14.0;;;14.0;;
53939;SDS011;39850;43.324;21.916;2023-08-17T11:56:47;14.0;;;13.0;;
53939;SDS011;39850;43.324;21.916;2023-08-17T12:01:24;14.0;;;13.0;;
53939;SDS011;39850;43.324;21.916;2023-08-17T12:06:01;14.0;;;13.0;;
53939;SDS011;39850;43.324;21.916;2023-08-17T12:38:27;16.0;;;15.0;;
53939;SDS011;39850;43.324;21.916;2023-08-17T12:43:04;16.0;;;15.0;;
53939;SDS011;39850;43.324;21.916;2023-08-17T12:47:41;16.0;;;16.0;;
53939;SDS011;39850;43.324;21.916;2023-08-17T12:52:18;16.0;;;16.0;;
53939;SDS011;39850;43.324;21.916;2023-08-17T12:56:54;16.0;;;16.0;;
53939;SDS011;39850;43.324;21.916;2023-08-17T13:01:31;16.0;;;16.0;;
53939;SDS011;39850;43.324;21.916;2023-08-17T13:06:08;16.0;;;16.0;;
53939;SDS011;39850;43.324;21.916;2023-08-17T13:10:45;16.0;;;16.0;;
53939;SDS011;39850;43.324;21.916;2023-08-17T13:15:22;16.0;;;16.0;;
53939;SDS011;39850;43.324;21.916;2023-08-17T13:19:58;16.0;;;16.0;;
53939;SDS011;39850;43.324;21.916;2023-08-17T13:24:35;16.0;;;16.0;;
53939;SDS011;39850;43.324;21.916;2023-08-17T13:56:51;17.0;;;16.0;;
53939;SDS011;39850;43.324;21.916;2023-08-17T14:01:28;17.0;;;16.0;;
53939;SDS011;39850;43.324;21.916;2023-08-17T14:06:05;17.0;;;16.0;;
53939;SDS011;39850;43.324;21.916;2023-08-17T14:10:41;16.0;;;16.0;;
53939;SDS011;39850;43.324;21.916;2023-08-17T14:15:18;16.0;;;16.0;;
53939;SDS011;39850;43.324;21.916;2023-08-17T14:19:54;17.0;;;16.0;;
53939;SDS011;39850;43.324;21.916;2023-08-17T14:24:31;17.0;;;16.0;;
53939;SDS011;39850;43.324;21.916;2023-08-17T14:29:07;16.0;;;16.0;;
53939;SDS011;39850;43.324;21.916;2023-08-17T14:33:45;16.0;;;16.0;;
53939;SDS011;39850;43.324;21.916;2023-08-17T14:38:23;17.0;;;16.0;;
53939;SDS011;39850;43.324;21.916;2023-08-17T14:43:00;17.0;;;16.0;;
53939;SDS011;39850;43.324;21.916;2023-08-17T15:19:55;16.0;;;17.0;;
53939;SDS011;39850;43.324;21.916;2023-08-17T15:24:32;16.0;;;17.0;;
53939;SDS011;39850;43.324;21.916;2023-08-17T15:29:09;19.0;;;20.0;;
53939;SDS011;39850;43.324;21.916;2023-08-17T15:33:45;19.0;;;20.0;;
53939;SDS011;39850;43.324;21.916;2023-08-17T15:38:24;20.0;;;20.0;;
53939;SDS011;39850;43.324;21.916;2023-08-17T15:43:00;20.0;;;20.0;;
53939;SDS011;39850;43.324;21.916;2023-08-17T15:47:37;21.0;;;22.0;;
53939;SDS011;39850;43.324;21.916;2023-08-17T15:52:15;21.0;;;22.0;;
53939;SDS011;39850;43.324;21.916;2023-08-17T15:56:52;21.0;;;22.0;;
53939;SDS011;39850;43.324;21.916;2023-08-17T16:01:28;20.0;;;20.0;;
53939;SDS011;39850;43.324;21.916;2023-08-17T16:06:06;20.0;;;20.0;;
53939;SDS011;39850;43.324;21.916;2023-08-17T16:38:23;16.0;;;17.0;;
53939;SDS011;39850;43.324;21.916;2023-08-17T16:43:00;16.0;;;17.0;;
53939;SDS011;39850;43.324;21.916;2023-08-17T16:47:36;16.0;;;17.0;;
53939;SDS011;39850;43.324;21.916;2023-08-17T16:52:12;16.0;;;17.0;;
53939;SDS011;39850;43.324;21.916;2023-08-17T16:56:48;16.0;;;17.0;;
53939;SDS011;39850;43.324;21.916;2023-08-17T17:01:25;17.0;;;17.0;;
53939;SDS011;39850;43.324;21.916;2023-08-17T17:06:02;17.0;;;17.0;;
53939;SDS011;39850;43.324;21.916;2023-08-17T17:10:39;17.0;;;17.0;;
53939;SDS011;39850;43.324;21.916;2023-08-17T17:15:16;17.0;;;17.0;;
53939;SDS011;39850;43.324;21.916;2023-08-17T17:19:53;17.0;;;17.0;;
53939;SDS011;39850;43.324;21.916;2023-08-17T17:24:30;17.0;;;17.0;;
53939;SDS011;39850;43.324;21.916;2023-08-17T18:01:23;21.0;;;21.0;;
53939;SDS011;39850;43.324;21.916;2023-08-17T18:05:59;21.0;;;21.0;;
53939;SDS011;39850;43.324;21.916;2023-08-17T18:10:38;24.0;;;26.0;;
53939;SDS011;39850;43.324;21.916;2023-08-17T18:15:15;24.0;;;26.0;;
53939;SDS011;39850;43.324;21.916;2023-08-17T18:19:51;28.0;;;30.0;;
53939;SDS011;39850;43.324;21.916;2023-08-17T18:24:28;28.0;;;30.0;;
53939;SDS011;39850;43.324;21.916;2023-08-17T18:29:04;35.0;;;38.0;;
53939;SDS011;39850;43.324;21.916;2023-08-17T18:33:41;35.0;;;38.0;;
53939;SDS011;39850;43.324;21.916;2023-08-17T18:38:17;42.0;;;45.0;;
53939;SDS011;39850;43.324;21.916;2023-08-17T18:42:54;42.0;;;45.0;;
53939;SDS011;39850;43.324;21.916;2023-08-17T18:47:30;42.0;;;45.0;;
53939;SDS011;39850;43.324;21.916;2023-08-17T19:19:47;15.0;;;15.0;;
53939;SDS011;39850;43.324;21.916;2023-08-17T19:24:24;15.0;;;15.0;;
53939;SDS011;39850;43.324;21.916;2023-08-17T19:29:00;15.0;;;15.0;;
53939;SDS011;39850;43.324;21.916;2023-08-17T19:33:37;15.0;;;15.0;;
53939;SDS011;39850;43.324;21.916;2023-08-17T19:38:14;15.0;;;15.0;;
53939;SDS011;39850;43.324;21.916;2023-08-17T19:42:51;15.0;;;15.0;;
53939;SDS011;39850;43.324;21.916;2023-08-17T19:47:27;15.0;;;15.0;;
53939;SDS011;39850;43.324;21.916;2023-08-17T19:52:04;14.0;;;14.0;;
53939;SDS011;39850;43.324;21.916;2023-08-17T19:56:41;14.0;;;14.0;;
53939;SDS011;39850;43.324;21.916;2023-08-17T20:01:19;14.0;;;14.0;;
53939;SDS011;39850;43.324;21.916;2023-08-17T20:05:56;14.0;;;14.0;;
53939;SDS011;39850;43.324;21.916;2023-08-17T20:38:13;17.0;;;17.0;;
53939;SDS011;39850;43.324;21.916;2023-08-17T20:42:49;17.0;;;17.0;;
53939;SDS011;39850;43.324;21.916;2023-08-17T20:47:26;17.0;;;17.0;;
53939;SDS011;39850;43.324;21.916;2023-08-17T20:52:03;16.0;;;17.0;;
53939;SDS011;39850;43.324;21.916;2023-08-17T20:56:39;16.0;;;17.0;;
53939;SDS011;39850;43.324;21.916;2023-08-17T21:01:16;17.0;;;17.0;;
53939;SDS011;39850;43.324;21.916;2023-08-17T21:05:53;17.0;;;17.0;;
53939;SDS011;39850;43.324;21.916;2023-08-17T21:10:29;16.0;;;17.0;;
53939;SDS011;39850;43.324;21.916;2023-08-17T21:15:09;16.0;;;17.0;;
53939;SDS011;39850;43.324;21.916;2023-08-17T21:19:47;17.0;;;17.0;;
53939;SDS011;39850;43.324;21.916;2023-08-17T21:24:23;17.0;;;17.0;;
53939;SDS011;39850;43.324;21.916;2023-08-17T22:01:18;17.0;;;17.0;;
53939;SDS011;39850;43.324;21.916;2023-08-17T22:05:54;17.0;;;17.0;;
53939;SDS011;39850;43.324;21.916;2023-08-17T22:10:32;21.0;;;22.0;;
53939;SDS011;39850;43.324;21.916;2023-08-17T22:15:09;21.0;;;22.0;;
53939;SDS011;39850;43.324;21.916;2023-08-17T22:19:45;25.0;;;27.0;;
53939;SDS011;39850;43.324;21.916;2023-08-17T22:24:22;25.0;;;27.0;;
53939;SDS011;39850;43.324;21.916;2023-08-17T22:28:59;26.0;;;28.0;;
53939;SDS011;39850;43.324;21.916;2023-08-17T22:33:37;26.0;;;28.0;;
53939;SDS011;39850;43.324;21.916;2023-08-17T22:38:13;26.0;;;28.0;;
53939;SDS011;39850;43.324;21.916;2023-08-17T22:42:50;27.0;;;28.0;;
53939;SDS011;39850;43.324;21.916;2023-08-17T22:47:27;27.0;;;28.0;;
53939;SDS011;39850;43.324;21.916;2023-08-17T23:19:46;17.0;;;17.0;;
53939;SDS011;39850;43.324;21.916;2023-08-17T23:24:23;17.0;;;17.0;;
53939;SDS011;39850;43.324;21.916;2023-08-17T23:28:59;16.0;;;16.0;;
53939;SDS011;39850;43.324;21.916;2023-08-17T23:33:36;16.0;;;16.0;;
53939;SDS011;39850;43.324;21.916;2023-08-17T23:38:12;16.0;;;16.0;;
53939;SDS011;39850;43.324;21.916;2023-08-17T23:42:49;16.0;;;16.0;;
53939;SDS011;39850;43.324;21.916;2023-08-17T23:47:25;16.0;;;16.0;;
53939;SDS011;39850;43.324;21.916;2023-08-17T23:52:01;16.0;;;16.0;;
53939;SDS011;39850;43.324;21.916;2023-08-17T23:56:38;16.0;;;16.0;;
